Terminal Aerodrome Forecast
Issued by NWS

Home | Current Version | Previous Version | Text Only | Print | Product List | Glossary Off
Versions: 1 2 3 4 5 6 7 8 9 10 11 12 13 14 15 16 17 18 19 20 21 22 23 24

034
FTUS43 KICT 262322
TAFRSL
TAF
KRSL 262322Z 2700/2724 04009KT P6SM VCSH SCT012 OVC035
      TEMPO 2700/2703 BKN012
     FM270300 02009KT 5SM BR OVC010
     FM270600 36008KT 4SM BR OVC007
     FM270800 35008KT 3SM BR OVC004
     FM271600 36007KT P6SM SCT020=

USA.gov is the U.S. government's official web portal to all federal, state and local government web resources and services.